Time;durP1;ratioP1;P1;durP2;ratioP2;P2;SDS_P1;SDS_P2;PMS_P1;PMS_P2;Temp;Humidity;BMP_temperature;BMP_pressure;BME280_temperature;BME280_humidity;BME280_pressure;Samples;Min_cycle;Max_cycle;Signal;HPM_P1;HPM_P2
2024/04/26 00:00:54;;;;;;;10.73;6.82;;;;;;;10.68;84.37;98756.19;6213602;22;20361;-95
2024/04/26 00:03:20;;;;;;;8.02;6.50;;;;;;;10.52;84.64;98746.63;6212355;22;20004;-95
2024/04/26 00:05:46;;;;;;;8.05;6.65;;;;;;;10.64;84.85;98760.53;6251827;22;20403;-92
2024/04/26 00:08:12;;;;;;;7.43;6.47;;;;;;;10.64;84.25;98751.66;6213884;22;20006;-93
2024/04/26 00:10:37;;;;;;;9.30;6.40;;;;;;;10.63;84.66;98747.38;6252766;22;20004;-93
2024/04/26 00:13:03;;;;;;;9.38;6.45;;;;;;;10.67;84.52;98753.78;6213088;22;19996;-93
2024/04/26 00:15:29;;;;;;;7.50;6.18;;;;;;;10.76;84.12;98765.53;6252071;22;20019;-95
2024/04/26 00:17:54;;;;;;;9.50;6.40;;;;;;;10.68;84.08;98748.09;6290268;22;20407;-94
2024/04/26 00:20:20;;;;;;;11.18;5.53;;;;;;;10.56;83.85;98739.59;6214170;22;20000;-93
2024/04/26 00:22:45;;;;;;;9.77;5.70;;;;;;;10.82;84.23;98775.19;6267380;22;19999;-94
2024/04/26 00:25:11;;;;;;;6.15;5.30;;;;;;;10.77;83.39;98760.94;6260425;22;19995;-92
2024/04/26 00:27:37;;;;;;;5.38;4.80;;;;;;;10.88;82.99;98782.13;6260948;22;20003;-95
2024/04/26 00:30:06;;;;;;;6.13;4.32;;;;;;;10.90;82.63;98784.53;6263217;22;19991;-92
2024/04/26 00:32:35;;;;;;;4.88;4.18;;;;;;;10.77;82.54;98755.56;6264913;22;20474;-95
2024/04/26 00:35:01;;;;;;;5.10;4.10;;;;;;;11.02;81.48;98784.13;6301935;22;20007;-91
2024/04/26 00:37:27;;;;;;;4.82;4.32;;;;;;;11.01;81.10;98777.94;6263060;22;19999;-95
2024/04/26 00:39:55;;;;;;;5.18;4.03;;;;;;;10.78;81.54;98757.97;6261776;22;20027;-93
2024/04/26 00:42:20;;;;;;;5.10;3.75;;;;;;;10.82;80.67;98763.59;6263789;22;20443;-93
2024/04/26 00:44:46;;;;;;;5.68;4.22;;;;;;;10.90;80.94;98785.31;6262498;22;19995;-93
2024/04/26 00:47:12;;;;;;;8.23;4.78;;;;;;;10.80;81.25;98777.34;6261736;22;20014;-94
2024/04/26 00:49:37;;;;;;;5.55;4.85;;;;;;;10.83;81.21;98786.75;6262396;22;20002;-95
2024/04/26 00:52:03;;;;;;;6.65;4.45;;;;;;;10.74;81.37;98775.78;6267005;22;19999;-95
2024/04/26 00:54:29;;;;;;;6.28;4.30;;;;;;;10.80;81.30;98784.63;6261586;22;20007;-93
2024/04/26 00:56:58;;;;;;;7.63;4.10;;;;;;;10.85;81.08;98790.78;6261960;22;19991;-94
2024/04/26 00:59:25;;;;;;;4.63;3.63;;;;;;;10.96;80.62;98813.03;6262565;22;20003;-94
2024/04/26 01:01:50;;;;;;;4.97;4.05;;;;;;;10.77;81.67;98785.19;6262504;22;20018;-94
2024/04/26 01:04:16;;;;;;;8.43;4.22;;;;;;;10.83;81.26;98792.94;6261892;22;19999;-93
2024/04/26 01:06:42;;;;;;;5.97;3.90;;;;;;;10.92;80.80;98807.41;6262033;22;19995;-93
2024/04/26 01:09:09;;;;;;;6.25;4.20;;;;;;;11.11;80.25;98802.06;6261838;22;20066;-93
2024/04/26 01:11:34;;;;;;;5.35;4.00;;;;;;;11.06;80.43;98782.47;6262070;22;19991;-94
2024/04/26 01:14:00;;;;;;;4.00;3.20;;;;;;;11.20;79.98;98806.84;6260217;22;19995;-94
2024/04/26 01:16:25;;;;;;;4.25;3.30;;;;;;;11.01;79.58;98786.03;6261034;22;20003;-92
2024/04/26 01:18:51;;;;;;;4.65;3.78;;;;;;;11.16;79.28;98797.72;6261467;22;20032;-95
2024/04/26 01:21:17;;;;;;;3.80;3.20;;;;;;;11.13;78.20;98793.72;6261897;22;19999;-94
2024/04/26 01:23:42;;;;;;;6.88;3.00;;;;;;;11.37;78.25;98826.06;6227038;22;20020;-93
2024/04/26 01:26:09;;;;;;;3.85;2.85;;;;;;;11.21;77.76;98797.69;6253644;22;20040;-94
2024/04/26 01:28:35;;;;;;;4.95;3.30;;;;;;;11.37;77.99;98817.16;6253754;22;20389;-93
2024/04/26 01:31:01;;;;;;;4.68;2.88;;;;;;;11.45;78.20;98835.41;6215067;22;20009;-94
2024/04/26 01:33:27;;;;;;;5.20;3.47;;;;;;;11.22;78.85;98801.97;6213457;22;20052;-96
2024/04/26 01:35:52;;;;;;;4.63;3.00;;;;;;;11.04;80.14;98798.94;6213296;22;20067;-93
2024/04/26 01:38:18;;;;;;;5.85;3.40;;;;;;;10.98;81.10;98800.06;6253433;22;20003;-94
2024/04/26 01:40:43;;;;;;;5.55;3.70;;;;;;;10.95;81.68;98800.63;6214296;22;19999;-94
2024/04/26 01:43:09;;;;;;;7.35;3.97;;;;;;;10.88;82.36;98809.06;6252260;22;19992;-92
2024/04/26 01:45:35;;;;;;;5.47;3.97;;;;;;;10.89;82.53;98804.47;6256830;22;19984;-96
2024/04/26 01:48:00;;;;;;;5.43;3.78;;;;;;;10.88;83.50;98822.50;6215096;22;19999;-93
2024/04/26 01:50:26;;;;;;;6.47;3.90;;;;;;;10.81;83.63;98805.91;6213607;22;19988;-95
2024/04/26 01:52:52;;;;;;;5.68;3.60;;;;;;;10.87;83.22;98814.72;6214257;22;19992;-95
2024/04/26 01:55:17;;;;;;;5.03;4.00;;;;;;;10.85;83.74;98824.97;6217319;22;19992;-94
2024/04/26 01:57:43;;;;;;;7.65;3.85;;;;;;;10.84;83.85;98823.38;6215144;22;20032;-95
2024/04/26 02:00:09;;;;;;;4.53;3.50;;;;;;;10.76;83.62;98808.63;6215637;22;19996;-95
2024/04/26 02:02:35;;;;;;;5.32;3.88;;;;;;;10.90;84.03;98851.88;6214680;22;20021;-93
2024/04/26 02:05:02;;;;;;;4.30;3.20;;;;;;;10.81;84.16;98840.09;6253755;22;19992;-95
2024/04/26 02:07:27;;;;;;;6.45;3.28;;;;;;;10.87;83.85;98853.25;6214758;22;20027;-95
2024/04/26 02:09:53;;;;;;;5.32;3.35;;;;;;;10.89;83.72;98850.25;6215213;22;20011;-94
2024/04/26 02:12:18;;;;;;;4.22;3.58;;;;;;;10.79;83.57;98836.88;6214291;22;20068;-95
2024/04/26 02:14:44;;;;;;;4.65;3.28;;;;;;;10.75;83.06;98843.91;6214007;22;20003;-94
2024/04/26 02:17:12;;;;;;;5.55;3.10;;;;;;;10.66;83.33;98836.44;6253361;22;19992;-95
2024/04/26 02:19:37;;;;;;;4.80;3.80;;;;;;;10.65;82.55;98845.63;6215179;22;20002;-95
2024/04/26 02:22:04;;;;;;;6.82;3.70;;;;;;;10.55;82.91;98834.91;6214491;22;20427;-93
2024/04/26 02:24:29;;;;;;;6.38;4.90;;;;;;;10.49;83.36;98831.47;6261461;22;20007;-95
2024/04/26 02:26:55;;;;;;;11.00;5.55;;;;;;;10.58;83.30;98845.13;6300520;22;19998;-95
2024/04/26 02:29:21;;;;;;;5.20;4.43;;;;;;;10.60;82.56;98837.56;6261553;22;20402;-95
2024/04/26 02:31:46;;;;;;;9.65;5.93;;;;;;;10.66;82.39;98843.72;6261079;22;20319;-93
2024/04/26 02:34:12;;;;;;;9.85;6.32;;;;;;;10.77;82.37;98864.09;6260949;22;20067;-94
2024/04/26 02:36:38;;;;;;;5.95;4.97;;;;;;;10.58;83.03;98838.94;6262324;22;20006;-94
2024/04/26 02:39:03;;;;;;;8.13;5.82;;;;;;;10.71;82.38;98849.06;6260646;22;20363;-94
2024/04/26 02:41:29;;;;;;;6.90;5.15;;;;;;;10.81;81.10;98842.78;6261021;22;19995;-94
2024/04/26 02:43:54;;;;;;;9.07;5.80;;;;;;;10.76;82.39;98854.41;6259213;22;20007;-95
2024/04/26 02:46:20;;;;;;;10.40;5.75;;;;;;;10.77;82.28;98864.09;6263963;22;19995;-94
2024/04/26 02:48:46;;;;;;;10.90;5.88;;;;;;;10.73;82.26;98868.44;6261448;22;19991;-95
2024/04/26 02:51:12;;;;;;;10.23;6.05;;;;;;;10.89;82.19;98898.72;6265503;22;19991;-94
2024/04/26 02:53:39;;;;;;;11.13;5.82;;;;;;;10.61;81.92;98868.00;6267342;22;20302;-94
2024/04/26 02:56:05;;;;;;;10.68;6.45;;;;;;;10.68;81.90;98879.25;6301015;22;20414;-94
2024/04/26 02:58:30;;;;;;;8.57;5.88;;;;;;;10.72;82.73;98902.63;6302158;22;20006;-95
2024/04/26 03:00:57;;;;;;;8.65;5.10;;;;;;;10.64;83.14;98887.06;6263814;22;19995;-94
2024/04/26 03:03:24;;;;;;;6.18;4.68;;;;;;;10.64;83.88;98905.91;6268491;22;20003;-94
2024/04/26 03:05:50;;;;;;;6.88;4.32;;;;;;;10.48;84.44;98904.44;6268725;22;20066;-95
2024/04/26 03:08:15;;;;;;;7.22;4.53;;;;;;;10.59;84.55;98930.19;6268165;22;20399;-93
2024/04/26 03:10:41;;;;;;;5.43;4.32;;;;;;;10.53;84.71;98920.53;6267019;22;20040;-93
2024/04/26 03:13:10;;;;;;;6.90;4.88;;;;;;;10.42;84.80;98925.19;6263657;22;20007;-93
2024/04/26 03:15:36;;;;;;;6.35;4.25;;;;;;;10.34;84.48;98909.63;6303733;22;20273;-94
2024/04/26 03:18:01;;;;;;;8.00;4.93;;;;;;;10.32;84.94;98928.72;6265815;22;20044;-94
2024/04/26 03:20:27;;;;;;;8.18;4.72;;;;;;;10.26;84.91;98923.63;6266382;22;20039;-96
2024/04/26 03:22:56;;;;;;;8.05;4.55;;;;;;;10.34;85.41;98954.56;6268570;22;20002;-95
2024/04/26 03:25:22;;;;;;;8.77;5.10;;;;;;;10.17;84.34;98922.59;6260215;22;19983;-93
2024/04/26 03:27:47;;;;;;;6.45;4.32;;;;;;;10.38;84.36;98956.44;6261504;22;20003;-94
2024/04/26 03:30:13;;;;;;;12.43;4.78;;;;;;;10.27;84.17;98944.88;6261750;22;20011;-93
2024/04/26 03:32:40;;;;;;;5.82;4.53;;;;;;;10.27;84.16;98938.69;6264584;22;20003;-94
2024/04/26 03:35:06;;;;;;;7.57;4.38;;;;;;;10.20;84.43;98936.28;6261937;22;20070;-91
2024/04/26 03:37:32;;;;;;;7.93;5.50;;;;;;;10.17;84.43;98944.09;6261529;22;20003;-93
2024/04/26 03:39:57;;;;;;;6.97;5.07;;;;;;;10.09;84.90;98943.59;6303328;22;20002;-93
2024/04/26 03:42:24;;;;;;;8.07;5.38;;;;;;;10.05;85.00;98944.44;6266316;22;20002;-94
2024/04/26 03:44:50;;;;;;;8.85;5.18;;;;;;;10.01;85.32;98946.88;6270415;22;19999;-94
2024/04/26 03:47:30;;;;;;;10.25;5.05;;;;;;;9.93;85.24;98941.25;6264846;22;19995;-94
2024/04/26 03:49:56;;;;;;;9.35;5.25;;;;;;;9.94;86.00;98959.00;6268055;22;19991;-94
2024/04/26 03:52:21;;;;;;;9.90;5.32;;;;;;;9.86;85.25;98961.19;6267963;22;20010;-94
2024/04/26 03:54:52;;;;;;;7.85;5.43;;;;;;;9.75;85.32;98953.41;6272260;22;19999;-95
2024/04/26 03:57:17;;;;;;;12.50;6.40;;;;;;;9.77;86.00;98973.56;6267461;22;20027;-94
2024/04/26 03:59:52;;;;;;;11.98;6.78;;;;;;;9.80;85.42;98986.47;6262572;22;20363;-93
2024/04/26 04:02:18;;;;;;;19.73;8.88;;;;;;;9.64;85.50;98977.63;6261601;22;20019;-93
2024/04/26 04:04:44;;;;;;;16.90;12.02;;;;;;;9.68;86.69;98997.50;6262295;22;19999;-94
2024/04/26 04:07:09;;;;;;;11.90;7.25;;;;;;;9.61;85.80;98974.69;6270026;22;20403;-93
2024/04/26 04:09:36;;;;;;;10.98;6.80;;;;;;;9.60;86.39;98973.06;6265726;22;19999;-93
2024/04/26 04:12:02;;;;;;;13.48;6.85;;;;;;;9.66;86.96;98986.22;6303435;22;19995;-93
2024/04/26 04:14:28;;;;;;;11.65;6.35;;;;;;;9.74;86.23;99013.66;6263131;22;20019;-94
2024/04/26 04:16:53;;;;;;;12.00;6.82;;;;;;;9.70;86.36;99006.09;6268804;22;20005;-92
2024/04/26 04:19:19;;;;;;;19.35;7.03;;;;;;;9.62;85.71;98993.22;6261625;22;20429;-92
2024/04/26 04:21:47;;;;;;;16.08;8.88;;;;;;;9.82;85.44;99008.53;6262307;22;20347;-93
2024/04/26 04:24:13;;;;;;;26.90;15.57;;;;;;;9.72;85.72;98997.78;6266269;22;19991;-94
2024/04/26 04:26:39;;;;;;;20.27;13.32;;;;;;;9.95;84.74;99019.78;6265045;22;20039;-94
2024/04/26 04:29:13;;;;;;;16.38;11.15;;;;;;;9.93;84.16;99005.81;6268675;22;20099;-95
2024/04/26 04:31:40;;;;;;;9.80;6.85;;;;;;;9.96;83.50;99002.56;6265405;22;19999;-92
2024/04/26 04:34:06;;;;;;;16.55;9.45;;;;;;;10.21;83.49;99032.09;6303465;22;19995;-95
2024/04/26 04:36:36;;;;;;;20.25;8.18;;;;;;;10.14;84.35;99030.75;6265648;22;19987;-96
2024/04/26 04:39:12;;;;;;;15.10;7.93;;;;;;;10.07;84.36;99017.59;6305702;22;19999;-94
2024/04/26 04:41:50;;;;;;;15.05;8.50;;;;;;;10.08;83.45;99025.38;6266441;22;20008;-96
2024/04/26 04:44:48;;;;;;;12.82;8.75;;;;;;;10.11;82.89;99035.59;6271508;22;19983;-94
2024/04/26 04:47:17;;;;;;;21.10;9.75;;;;;;;10.02;83.21;99018.44;6318327;22;19991;-95
2024/04/26 04:50:00;;;;;;;15.10;9.25;;;;;;;10.18;82.24;99048.75;6270360;22;19999;-96
2024/04/26 04:52:47;;;;;;;;;;;;;;;;;;;;;
2024/04/26 04:55:18;;;;;;;14.10;9.95;;;;;;;10.16;85.56;99034.78;6322621;22;20002;-96
2024/04/26 04:58:01;;;;;;;18.55;12.00;;;;;;;10.06;85.30;99018.66;6274219;22;20070;-96
2024/04/26 05:01:14;;;;;;;;;;;;;;;;;;;;;
2024/04/26 05:03:54;;;;;;;16.05;10.98;;;;;;;10.55;82.53;99054.88;6201866;22;19994;-95
2024/04/26 05:14:11;;;;;;;15.50;8.10;;;;;;;10.73;76.44;99021.94;6325663;22;20105;-96
2024/04/26 05:16:59;;;;;;;13.48;7.68;;;;;;;10.83;77.71;99023.75;6248377;22;19986;-96
2024/04/26 05:34:20;;;;;;;7.38;4.35;;;;;;;11.65;67.72;99072.47;6252019;22;20008;-96
2024/04/26 05:36:55;;;;;;;4.80;3.63;;;;;;;11.56;66.24;99041.81;6211506;22;20008;-92
2024/04/26 05:39:21;;;;;;;6.20;3.50;;;;;;;11.80;64.46;99063.44;6213494;22;20005;-91
2024/04/26 05:48:41;;;;;;;11.18;4.68;;;;;;;11.88;64.38;99043.13;6118552;22;20050;-94
2024/04/26 05:51:16;;;;;;;11.77;7.00;;;;;;;11.91;66.45;99056.91;6172773;22;19997;-91
2024/04/26 05:53:43;;;;;;;8.35;4.35;;;;;;;12.11;66.64;99082.84;6210358;22;20000;-90
2024/04/26 05:56:10;;;;;;;10.10;6.78;;;;;;;12.15;64.51;99052.63;6245974;22;20069;-94
2024/04/26 05:58:36;;;;;;;8.70;5.05;;;;;;;12.27;63.71;99066.53;6171755;22;20072;-91
2024/04/26 06:04:25;;;;;;;6.20;3.97;;;;;;;12.23;63.64;99062.78;6291287;22;20316;-95
2024/04/26 06:07:01;;;;;;;;;;;;;;;;;;;;;
2024/04/26 06:09:28;;;;;;;6.68;4.35;;;;;;;12.42;62.82;99063.63;6252309;22;20008;-92
2024/04/26 06:12:02;;;;;;;5.22;3.85;;;;;;;12.51;59.54;99059.22;6207790;22;20013;-93
2024/04/26 06:14:59;;;;;;;7.60;4.18;;;;;;;12.55;61.48;99064.81;6113283;23;19998;-94
2024/04/26 06:17:27;;;;;;;9.82;4.35;;;;;;;12.67;60.97;99080.63;6068639;23;19995;-91
2024/04/26 06:20:14;;;;;;;8.70;3.97;;;;;;;12.90;60.18;99106.78;6051821;23;20077;-92
2024/04/26 06:22:40;;;;;;;4.80;2.92;;;;;;;12.92;59.78;99104.59;6013855;23;20007;-92
2024/04/26 06:25:06;;;;;;;3.60;3.00;;;;;;;12.87;58.68;99079.56;6016922;23;20493;-91
2024/04/26 06:27:47;;;;;;;6.40;3.58;;;;;;;12.96;60.18;99087.81;6024642;23;20050;-95
2024/04/26 06:30:22;;;;;;;5.68;3.90;;;;;;;13.05;58.44;99086.88;6028584;23;20046;-96
2024/04/26 06:42:01;;;;;;;11.85;5.32;;;;;;;13.50;57.09;99091.94;6234190;22;20001;-94
2024/04/26 06:44:30;;;;;;;5.30;3.80;;;;;;;13.69;56.67;99094.59;6170710;22;20012;-96
2024/04/26 06:56:01;;;;;;;;;;;;;;;;;;;;;
2024/04/26 06:58:48;;;;;;;8.70;3.63;;;;;;;14.22;56.15;99107.75;6276049;22;20007;-94
2024/04/26 07:25:08;;;;;;;4.93;2.75;;;;;;;14.63;50.54;99108.91;6343615;22;20033;-94
2024/04/26 07:30:50;;;;;;;14.07;7.82;;;;;;;14.67;49.98;99118.84;6311572;22;20062;-94
2024/04/26 07:50:21;;;;;;;5.15;2.50;;;;;;;14.79;45.86;99101.25;6395320;22;20003;-95
2024/04/26 08:05:01;;;;;;;;;;;;;;;;;;;;;
2024/04/26 08:07:29;;;;;;;3.20;2.45;;;;;;;14.89;46.70;99120.03;6289285;22;19992;-96
2024/04/26 08:10:18;;;;;;;9.30;3.20;;;;;;;15.08;47.44;99114.47;6254633;22;20075;-96
2024/04/26 08:12:56;;;;;;;;;;;;;;;;;;;;;
2024/04/26 08:16:22;;;;;;;5.22;2.08;;;;;;;15.39;45.93;99119.22;6219628;22;20356;-96
2024/04/26 08:18:56;;;;;;;5.97;3.80;;;;;;;15.51;44.85;99124.91;6154220;23;20010;-95
2024/04/26 08:21:36;;;;;;;5.75;2.60;;;;;;;15.65;43.44;99138.44;6115596;23;20047;-96
2024/04/26 08:24:06;;;;;;;5.15;2.10;;;;;;;15.82;44.82;99154.06;6174543;22;19988;-94
2024/04/26 08:26:39;;;;;;;3.60;2.80;;;;;;;15.85;43.88;99137.16;6206113;22;19992;-95
2024/04/26 08:29:06;;;;;;;3.88;2.78;;;;;;;16.07;43.34;99167.00;6166637;22;20310;-96
2024/04/26 08:31:32;;;;;;;3.38;2.40;;;;;;;15.98;42.14;99149.06;6162612;22;20000;-96
2024/04/26 08:34:01;;;;;;;4.05;2.35;;;;;;;16.07;41.66;99155.34;6165462;22;20005;-96
2024/04/26 08:37:21;;;;;;;;;;;;;;;;;;;;;
2024/04/26 08:40:45;;;;;;;;;;;;;;;;;;;;;
2024/04/26 08:44:25;;;;;;;3.78;2.33;;;;;;;16.25;42.34;99164.41;6386815;22;19998;-96
2024/04/26 08:47:14;;;;;;;4.38;2.70;;;;;;;16.08;41.38;99162.38;6343822;22;20071;-95
2024/04/26 09:05:16;;;;;;;3.03;1.80;;;;;;;15.93;40.88;99144.56;6334018;22;20024;-93
2024/04/26 09:08:25;;;;;;;4.00;2.30;;;;;;;15.86;40.37;99136.06;6259011;22;20048;-90
2024/04/26 09:11:30;;;;;;;3.17;1.90;;;;;;;15.85;41.06;99135.22;6231843;22;19980;-92
2024/04/26 09:16:46;;;;;;;6.90;2.85;;;;;;;16.07;40.75;99148.00;6162932;23;20004;-95
2024/04/26 09:19:24;;;;;;;3.72;2.00;;;;;;;16.04;38.97;99154.06;6239533;22;20003;-93
2024/04/26 09:22:12;;;;;;;4.00;2.15;;;;;;;16.08;39.12;99146.09;6256166;22;20007;-92
2024/04/26 09:40:56;;;;;;;6.30;2.60;;;;;;;16.37;39.82;99140.16;6138773;23;19996;-95
2024/04/26 09:44:22;;;;;;;;;;;;;;;;;;;;;
2024/04/26 09:47:57;;;;;;;3.72;2.22;;;;;;;16.77;40.35;99168.16;6192605;23;20022;-96
2024/04/26 09:50:25;;;;;;;2.03;1.67;;;;;;;16.52;38.87;99133.53;6193829;23;20009;-96
2024/04/26 09:57:30;;;;;;;2.60;1.90;;;;;;;16.46;39.04;99132.88;6135452;23;19994;-94
2024/04/26 10:37:49;;;;;;;2.33;1.40;;;;;;;17.26;37.01;99130.06;6288668;22;20007;-94
2024/04/26 10:55:30;;;;;;;;;;;;;;;;;;;;;
2024/04/26 11:05:47;;;;;;;;;;;;;;;;;;;;;
2024/04/26 11:11:23;;;;;;;3.42;1.85;;;;;;;18.02;38.95;99115.16;6349629;22;20040;-95
2024/04/26 11:37:49;;;;;;;2.10;1.50;;;;;;;17.90;36.62;99112.28;6338779;22;19995;-94
2024/04/26 11:40:48;;;;;;;;;;;;;;;;;;;;;
2024/04/26 11:43:38;;;;;;;3.65;1.90;;;;;;;18.12;36.76;99120.25;6195064;23;20005;-95
2024/04/26 11:49:39;;;;;;;2.50;1.65;;;;;;;18.30;38.12;99117.47;6126639;23;19987;-96
2024/04/26 11:52:11;;;;;;;3.03;1.70;;;;;;;18.44;38.03;99144.50;6257176;22;19988;-96
2024/04/26 11:54:42;;;;;;;2.20;1.63;;;;;;;18.41;37.19;99136.97;6257155;22;19996;-96
2024/04/26 11:57:11;;;;;;;2.03;1.67;;;;;;;18.42;37.56;99136.66;6218195;22;20101;-95
2024/04/26 11:59:42;;;;;;;2.50;1.75;;;;;;;18.31;37.13;99114.41;6216655;22;19999;-96
2024/04/26 12:06:31;;;;;;;;;;;;;;;;;;;;;
2024/04/26 12:10:00;;;;;;;;;;;;;;;;;;;;;
2024/04/26 12:12:46;;;;;;;2.95;1.58;;;;;;;18.20;36.69;99126.81;6300609;22;19999;-96
2024/04/26 12:15:25;;;;;;;1.77;1.55;;;;;;;17.97;35.79;99124.28;6223163;22;20011;-95
2024/04/26 12:17:51;;;;;;;3.58;1.83;;;;;;;18.31;36.62;99136.22;6258985;22;20000;-96
2024/04/26 12:20:22;;;;;;;2.90;1.80;;;;;;;18.25;37.49;99131.28;6218272;22;20007;-95
2024/04/26 12:22:48;;;;;;;2.60;1.55;;;;;;;18.25;37.17;99125.81;6221538;22;19996;-93
2024/04/26 12:25:24;;;;;;;2.15;1.55;;;;;;;18.18;36.70;99120.88;6221785;22;20011;-94
2024/04/26 12:28:29;;;;;;;2.05;1.48;;;;;;;18.31;36.64;99133.50;6230058;22;20004;-96
2024/04/26 12:31:16;;;;;;;3.70;1.50;;;;;;;18.21;36.26;99150.19;6300493;22;20412;-95
2024/04/26 12:34:08;;;;;;;2.92;1.50;;;;;;;18.11;36.60;99117.84;6159953;23;20010;-96
2024/04/26 12:36:39;;;;;;;3.95;1.42;;;;;;;17.94;36.73;99130.38;6167029;23;20331;-95
2024/04/26 12:39:09;;;;;;;2.00;1.30;;;;;;;18.13;36.55;99121.03;6157053;23;20006;-96
2024/04/26 12:41:37;;;;;;;3.42;1.80;;;;;;;18.27;35.98;99140.72;6121158;23;19998;-94
2024/04/26 12:44:11;;;;;;;2.45;1.42;;;;;;;18.23;36.55;99130.81;6118703;23;20019;-95
2024/04/26 12:46:38;;;;;;;1.85;1.60;;;;;;;18.20;36.39;99115.09;6120667;22;20431;-95
2024/04/26 12:51:42;;;;;;;2.22;1.50;;;;;;;18.51;34.98;99128.44;6334260;22;19987;-96
2024/04/26 12:54:46;;;;;;;2.55;1.70;;;;;;;18.51;34.77;99112.91;6269347;22;19987;-95
2024/04/26 13:03:17;;;;;;;1.42;1.25;;;;;;;18.94;33.33;99114.59;6346090;22;20004;-95
2024/04/26 13:05:40;;;;;;;3.17;1.80;;;;;;;18.87;33.65;99108.88;6304078;22;20000;-94
2024/04/26 13:08:09;;;;;;;3.67;1.90;;;;;;;18.97;33.94;99113.16;6218002;22;20033;-94
2024/04/26 13:10:49;;;;;;;2.53;1.70;;;;;;;18.93;33.72;99102.13;6219766;22;20045;-95
2024/04/26 13:13:33;;;;;;;2.40;1.35;;;;;;;19.33;33.16;99137.16;6222591;22;20385;-94
2024/04/26 13:15:59;;;;;;;3.05;2.10;;;;;;;19.23;33.10;99139.47;6296068;22;20010;-95
2024/04/26 13:18:42;;;;;;;3.97;1.58;;;;;;;19.21;32.56;99123.44;6221692;22;20343;-95
2024/04/26 13:21:11;;;;;;;1.88;1.30;;;;;;;19.26;32.11;99111.50;6224154;22;19992;-95
2024/04/26 13:23:45;;;;;;;2.00;1.23;;;;;;;19.35;32.09;99106.78;6252361;22;20273;-94
2024/04/26 13:26:17;;;;;;;3.50;1.17;;;;;;;19.24;31.71;99102.88;6218840;22;19992;-94
2024/04/26 13:29:03;;;;;;;1.75;1.42;;;;;;;19.53;32.28;99126.56;6254776;22;19996;-96
2024/04/26 13:32:00;;;;;;;2.88;1.85;;;;;;;19.49;31.56;99112.00;6303972;22;20011;-93
2024/04/26 13:34:57;;;;;;;10.30;6.10;;;;;;;19.35;32.25;99107.59;6263577;22;20059;-96
2024/04/26 13:37:26;;;;;;;3.60;1.50;;;;;;;19.51;32.03;99117.91;6304680;22;20066;-95
2024/04/26 13:39:57;;;;;;;2.05;1.30;;;;;;;19.62;32.96;99126.50;6266815;22;19995;-96
2024/04/26 13:42:58;;;;;;;2.80;1.40;;;;;;;19.84;31.64;99145.28;6268201;22;20003;-96
2024/04/26 13:45:55;;;;;;;1.40;1.20;;;;;;;19.88;30.59;99126.25;6351121;22;19995;-95
2024/04/26 13:48:35;;;;;;;2.13;1.60;;;;;;;20.05;30.98;99128.84;6302901;22;19992;-95
2024/04/26 13:51:29;;;;;;;2.78;1.65;;;;;;;20.24;29.62;99143.94;6307112;22;19999;-95
2024/04/26 13:53:58;;;;;;;2.40;1.50;;;;;;;20.32;30.15;99132.88;6283944;22;20063;-95
2024/04/26 13:56:33;;;;;;;4.68;1.90;;;;;;;20.53;31.75;99151.16;6267701;22;20002;-96
2024/04/26 13:59:08;;;;;;;4.95;1.67;;;;;;;20.42;31.71;99119.91;6263291;22;20019;-95
2024/04/26 14:01:34;;;;;;;3.20;1.83;;;;;;;20.65;30.93;99132.03;6268653;22;20027;-96
2024/04/26 14:03:59;;;;;;;5.35;1.63;;;;;;;20.83;31.47;99138.06;6267066;22;20044;-96
2024/04/26 14:06:36;;;;;;;2.97;1.42;;;;;;;21.06;31.26;99141.13;6269012;22;20027;-96
2024/04/26 14:09:23;;;;;;;3.92;2.42;;;;;;;21.34;31.20;99137.66;6309713;22;19995;-95
2024/04/26 14:21:18;;;;;;;;;;;;;;;;;;;;;
2024/04/26 14:23:48;;;;;;;2.53;1.52;;;;;;;22.03;28.55;99148.63;6355816;22;19999;-96
2024/04/26 14:26:33;;;;;;;2.15;1.45;;;;;;;22.33;29.20;99135.31;6268040;22;19995;-96
2024/04/26 14:28:58;;;;;;;2.20;1.63;;;;;;;22.77;29.05;99154.47;6275884;22;20071;-95
2024/04/26 14:31:28;;;;;;;2.28;1.60;;;;;;;23.18;28.71;99161.34;6267133;22;19997;-95
2024/04/26 14:34:13;;;;;;;2.40;1.52;;;;;;;23.19;28.06;99151.94;6308981;22;19998;-96
2024/04/26 14:36:50;;;;;;;1.92;1.30;;;;;;;23.48;28.27;99158.03;6276718;22;20011;-96
2024/04/26 14:40:20;;;;;;;6.50;4.80;;;;;;;23.91;27.22;99150.69;6307960;22;20003;-94
2024/04/26 14:43:40;;;;;;;8.98;1.67;;;;;;;24.85;25.81;99158.63;6327578;22;19998;-96
2024/04/26 14:46:28;;;;;;;;;;;;;;;;;;;;;
2024/04/26 14:49:12;;;;;;;2.00;1.40;;;;;;;25.09;24.24;99162.94;6277666;22;19991;-96
2024/04/26 15:06:30;;;;;;;5.10;1.80;;;;;;;27.06;21.44;99152.47;6389013;22;20302;-96
2024/04/26 15:08:58;;;;;;;2.70;1.60;;;;;;;26.73;22.42;99162.50;6291902;22;20045;-92
2024/04/26 15:14:39;;;;;;;2.00;1.27;;;;;;;26.53;21.38;99171.00;6190427;23;20038;-95
2024/04/26 15:17:08;;;;;;;1.55;1.20;;;;;;;26.49;21.66;99150.03;6208358;22;20005;-94
2024/04/26 15:20:10;;;;;;;2.03;1.40;;;;;;;25.73;22.87;99171.31;6245311;22;20281;-95
2024/04/26 15:25:26;;;;;;;3.40;1.60;;;;;;;24.45;24.62;99167.41;6253711;22;20006;-96
2024/04/26 15:28:05;;;;;;;2.50;1.30;;;;;;;24.51;24.55;99155.75;6248211;22;20010;-95
2024/04/26 15:36:57;;;;;;;73.50;48.22;;;;;;;22.16;27.76;99167.41;6176476;22;20227;-94
2024/04/26 15:39:28;;;;;;;58.60;38.70;;;;;;;21.75;28.30;99152.19;6209237;22;20007;-94
2024/04/26 15:42:06;;;;;;;;;;;;;;;;;;;;;
2024/04/26 15:44:40;;;;;;;2.55;1.50;;;;;;;20.67;29.87;99154.38;6286795;22;19916;-96
2024/04/26 15:47:13;;;;;;;4.03;2.15;;;;;;;20.44;30.49;99173.13;6288412;22;20018;-95
2024/04/26 15:53:09;;;;;;;3.40;1.92;;;;;;;20.05;31.72;99149.91;6153202;23;20289;-94
2024/04/26 15:56:00;;;;;;;2.10;1.70;;;;;;;19.51;31.89;99170.59;6205163;23;20008;-94
2024/04/26 15:58:29;;;;;;;2.20;1.40;;;;;;;19.68;30.99;99185.25;6205730;22;20052;-95
2024/04/26 16:00:55;;;;;;;2.03;1.40;;;;;;;19.43;31.77;99163.28;6199964;23;20000;-94
2024/04/26 16:03:22;;;;;;;5.95;2.03;;;;;;;19.30;32.11;99158.84;6162670;23;20024;-92
2024/04/26 16:05:50;;;;;;;2.10;1.75;;;;;;;19.15;32.21;99169.25;6200288;22;19994;-94
2024/04/26 16:08:28;;;;;;;3.80;1.70;;;;;;;18.98;32.39;99150.22;6170793;22;20053;-95
2024/04/26 16:10:56;;;;;;;2.85;1.90;;;;;;;18.94;33.44;99166.44;6172607;22;20415;-95
2024/04/26 16:13:22;;;;;;;5.50;3.80;;;;;;;18.81;33.25;99177.63;6170881;22;19997;-94
2024/04/26 16:15:52;;;;;;;2.85;1.70;;;;;;;18.58;31.87;99172.38;6170895;22;20003;-95
2024/04/26 16:18:22;;;;;;;3.22;1.90;;;;;;;18.58;33.31;99175.09;6171375;22;19992;-96
2024/04/26 16:20:50;;;;;;;6.32;2.10;;;;;;;18.58;33.70;99197.72;6207568;22;20433;-94
2024/04/26 16:23:20;;;;;;;2.63;1.75;;;;;;;18.27;33.99;99170.69;6168617;22;19992;-95
2024/04/26 16:25:46;;;;;;;7.32;2.22;;;;;;;18.23;34.63;99180.66;6169777;22;20112;-96
2024/04/26 16:28:12;;;;;;;3.15;1.75;;;;;;;18.24;35.02;99186.91;6171975;22;20000;-93
2024/04/26 16:30:45;;;;;;;6.05;1.90;;;;;;;18.13;35.95;99179.06;6232233;22;20004;-93
2024/04/26 16:33:20;;;;;;;3.42;1.65;;;;;;;18.06;35.96;99177.97;6208206;22;20021;-94
2024/04/26 16:35:55;;;;;;;3.03;1.65;;;;;;;18.11;36.56;99203.09;6246290;22;20003;-95
2024/04/26 16:38:23;;;;;;;5.20;1.83;;;;;;;17.82;37.62;99172.97;6248511;22;20285;-94
2024/04/26 16:40:48;;;;;;;3.28;1.88;;;;;;;17.89;38.10;99203.31;6208760;22;19993;-96
2024/04/26 16:43:16;;;;;;;3.03;2.00;;;;;;;17.83;38.35;99199.16;6207656;22;20004;-94
2024/04/26 16:45:42;;;;;;;3.97;2.20;;;;;;;17.68;39.43;99189.47;6210662;22;20033;-95
2024/04/26 16:48:10;;;;;;;2.55;1.85;;;;;;;17.70;38.64;99203.56;6206504;22;20044;-95
2024/04/26 16:50:47;;;;;;;;;;;;;;;;;;;;;
2024/04/26 16:53:17;;;;;;;4.25;1.80;;;;;;;17.45;39.19;99205.16;6249674;22;20003;-95
2024/04/26 16:55:42;;;;;;;2.75;1.90;;;;;;;17.26;39.54;99189.91;6244969;22;20011;-93
2024/04/26 16:58:12;;;;;;;3.50;2.00;;;;;;;17.34;39.62;99216.34;6207386;22;20307;-93
2024/04/26 17:00:45;;;;;;;8.05;6.72;;;;;;;17.06;40.38;99191.31;6249854;22;20000;-93
2024/04/26 17:03:13;;;;;;;4.32;2.40;;;;;;;17.13;40.59;99212.63;6211413;22;20016;-93
2024/04/26 17:05:41;;;;;;;3.22;2.30;;;;;;;17.01;41.58;99224.09;6208061;22;19992;-93
2024/04/26 17:08:07;;;;;;;6.20;2.67;;;;;;;16.73;41.63;99196.31;6254029;22;19996;-95
2024/04/26 17:10:33;;;;;;;6.35;2.53;;;;;;;16.76;41.84;99211.97;6254136;22;20015;-93
2024/04/26 17:13:03;;;;;;;7.53;3.78;;;;;;;16.72;41.98;99214.50;6334079;22;19999;-94
2024/04/26 17:15:30;;;;;;;7.85;4.13;;;;;;;16.63;43.10;99215.59;6254924;22;19995;-94